עמוד ראשי
METAR-TAF:

METAR-TAF

שדות תעופה :

Al Wajh, ערב הסעודית

קו רוחב: 26-12N, קו אורך: 036-28E, גובה: 20מטר

תצפית מזג אוויר נוכחית

הדו"ח נערך לפני 36דקות, בשעה 23:00 UTC
רוח 3קשר מכיוון מערב/דרום-מערב
טמפרטורת 29 צלסיוס
לחות 84%
לחץ 1002 hPa
ראות: 9000מטר

METAR: OEWJ 152300Z 24003KT 9000 NSC 29/26 Q1002 NOSIG

זמן: 02:36 (23:36 UTC)

תחזית

הדו"ח נערך לפני 12 שעות ו 36דקות, בשעה 11:00 UTC
תחזית בתוקף מ 15 ב 12 UTC עד 16 ב 18 UTC
רוח 10קשר מכיוון צפון/צפון-מערב
ראות 10 קילומטר או יותר
ללא עננים שבסיסם נמוך מ 5000 רגל או קומולונימבוס
יעשה מ
15 ב 18 UTC עד 15 ב 20 UTC
רוח 3קשר עם כיוונים משתנים
ראות: 7000מטר
יעשה מ
16 ב 08 UTC עד 16 ב 10 UTC
רוח 10קשר מכיוון מערב/צפון-מערב
ראות 10 קילומטר או יותר
ללא עננים שבסיסם נמוך מ 5000 רגל או קומולונימבוס

TAF: OEWJ 151100Z 1512/1618 33010KT CAVOK BECMG 1518/1520 VRB03KT 7000 NSC BECMG 1608/1610 29010KT CAVOK

תצפיות ותחזיות מזג אוויר לגבי יותר מ- 4,000 שדות תעופה ברחבי העולם. דוחות METAR ו- TAF.

התחנות הזמינות מסומנות בנקודות צהובות ואדומות על גבי המפה.

העבר את העכבר לנקודה הצבעונית על מנת לראות את שם התחנה.

לאחר מכן, לחץ כדי לראות את תוכן ואת תחזיות מזג האוויר.

כדי לשנות את המפה: לחץ על הכפתורים הירוקים עם הפלוס השחור כדי להתקרב; על הכפתור הירוק עם המקף כדי להתרחק; או בחיצים הירוקים למפות סמוכות.


METAR-TAF: